Wisdom, Montana
Current Conditions -  °F | °C
As of 8:55 PM on Sunday 23 Nov 2014 (Local Time) from KSMN Reporting Station
Overcast Overcast  
Wind Chill: 30°   Ceiling: 3200
Heat Index: 37°   Visibility: 10mi
Dew Point: 23°   Wind: 10mph
Humidity: 56%   Direction: 290°WNW
Pressure: 30.05"   Gusts: 25mph
Location:  45.61°N, 113.44°W
Report Text: KSMN 240355Z AUTO 29009G22KT 270V020 10SM FEW024 BKN032 OVC070 03/M05 A3005 RMK AO1
Loading
Personal Weather Stations






























Interactive Weather Map New forecast layout! Learn more

10-Day Weather Forecast

Advertisements
Track Severe Weather on mobile